ěÝzenÝ letovÚho provozu ╚eskÚ republiky
Letiste: LKMT Aktualizace: 18.05.2022 01:00:31  UTC
 METAR LKMT 18.05. 01:00 ...
METAR LKMT 180100Z 02003KT CAVOK 09/08 Q1023 NOSIG=
 TAF LKMT 17.05. 23:00 ...
TAF LKMT 172300Z 1800/1906 05006KT CAVOK      TEMPO 1802/1805 5000 BR NSC      BECMG 1818/1820 20006KT=